Christine Anderson — WCN2606 — position and weather

sailwx.info

Track history (hours):
 
Tides and Currents Weather Stations Pressure Air Temp Water Temp Dewpoint Dewpoint Depression Visibility Wind Speed Wind Dir Waves Ship Positions

Christine Anderson

Owner: PIERCE, COUNTY OF, TACOMA, WA. More information available from US FCC via Universal Licensing System and Coast Guard Vessel Documentation Center.

Last reported at 2016-Apr-19 17:33 UTC. Time now 2016-May-31 23:44 UTC.
Position N 47°38' W 122°20'.
Warning: this ship's position is 42 days out of date.

MMSI: 366659730.

Date/timePositionNaut miles runAvg speedWind from/ knotsBaromVisibWave heightAir tempDewpointWater temp
2016-Apr-19 17:33N 47°38' W 122°20'4 3.7
2016-Apr-19 16:33N 47°40' W 122°24'1 1.5
2016-Apr-19 15:33N 47°40' W 122°27'1111.0
2016-Apr-19 14:34N 47°30' W 122°30'1211.7
2016-Apr-19 13:33N 47°18' W 122°33'8 7.5
2016-Apr-19 12:30N 47°10' W 122°36'0 0.0
2016-Apr-19 11:29N 47°10' W 122°36'0 0.0
2016-Apr-19 10:33N 47°10' W 122°36'0 0.0
2016-Apr-19 09:32N 47°10' W 122°36'0 0.0
2016-Apr-19 08:33N 47°10' W 122°36'0 0.0
2016-Apr-19 03:20N 47°10' W 122°36'0 0.0
2016-Apr-18 18:06N 47°10' W 122°36'0 0.0
2016-Apr-18 17:30N 47°10' W 122°36'0 0.0
2016-Apr-18 16:33N 47°10' W 122°36'0 0.0
2016-Apr-18 15:30N 47°10' W 122°36'0 0.0
2016-Apr-18 14:33N 47°10' W 122°36'0 0.0
2016-Apr-18 13:33N 47°10' W 122°36'0 0.0
2016-Apr-18 12:33N 47°10' W 122°36'0 0.0
2016-Apr-18 10:32N 47°10' W 122°36'0 0.0
2016-Apr-18 09:31N 47°10' W 122°36'0 0.0
2016-Apr-18 08:31N 47°10' W 122°36'0 0.0
2016-Apr-18 07:30N 47°10' W 122°36'0 0.0
2016-Apr-18 06:31N 47°10' W 122°36'0 0.0
2016-Apr-18 05:33N 47°10' W 122°36'0 0.0
2016-Apr-18 04:33N 47°10' W 122°36'0 0.0
2016-Apr-18 03:30N 47°10' W 122°36'0 0.0
2016-Apr-18 02:32N 47°10' W 122°36'0 0.0
2016-Apr-18 01:28N 47°10' W 122°36'0 0.0
2016-Apr-18 00:32N 47°10' W 122°36'0 0.0
2016-Apr-17 23:26N 47°10' W 122°36'0 0.0
2016-Apr-17 21:20N 47°10' W 122°36'0 0.0
2016-Apr-17 20:33N 47°10' W 122°36'0 0.0
2016-Apr-17 19:29N 47°10' W 122°36'0 0.0
2016-Apr-17 18:30N 47°10' W 122°36'0 0.0
2016-Apr-17 17:33N 47°10' W 122°36'0 0.0
2016-Apr-17 16:33N 47°10' W 122°36'0 0.0
2016-Apr-17 15:33N 47°10' W 122°36'0 0.0
2016-Apr-17 14:33N 47°10' W 122°36'0 0.0
2016-Apr-17 13:33N 47°10' W 122°36'0 0.0
2016-Apr-17 12:33N 47°10' W 122°36'0 0.0
2016-Apr-17 11:33N 47°10' W 122°36'0 0.0
2016-Apr-17 10:33N 47°10' W 122°36'0 0.0
2016-Apr-17 08:33N 47°10' W 122°36'0 0.0
2016-Apr-17 07:33N 47°10' W 122°36'0 0.0
2016-Apr-17 06:30N 47°10' W 122°36'0 0.0
2016-Apr-17 05:29N 47°10' W 122°36'0 0.0
2016-Apr-16 22:16N 47°10' W 122°36'0 0.0
2016-Apr-16 19:29N 47°10' W 122°36'0 0.0
2016-Apr-16 18:29N 47°10' W 122°36'0 0.0
2016-Apr-16 17:32N 47°10' W 122°36'0 0.0
2016-Apr-16 16:33N 47°10' W 122°36'0 0.0
2016-Apr-16 15:32N 47°10' W 122°36'0 0.0
2016-Apr-16 14:33N 47°10' W 122°36'0 0.0
2016-Apr-16 13:33N 47°10' W 122°36'0 0.0
2016-Apr-16 12:33N 47°10' W 122°36'0 0.0
2016-Apr-16 11:33N 47°10' W 122°36'0 0.0
2016-Apr-16 10:33N 47°10' W 122°36'0 0.0
2016-Apr-16 09:33N 47°10' W 122°36'0 0.0
2016-Apr-16 08:33N 47°10' W 122°36'0 0.0
2016-Apr-16 07:33N 47°10' W 122°36'0 0.0
2016-Apr-16 06:32N 47°10' W 122°36'0 0.0
2016-Apr-16 05:33N 47°10' W 122°36'0 0.0
2016-Apr-16 04:30N 47°10' W 122°36'0 0.0
2016-Apr-16 03:33N 47°10' W 122°36'0 0.0
2016-Apr-16 02:31N 47°10' W 122°36'0 0.0
2016-Apr-15 20:22N 47°10' W 122°36'3 3.4
2016-Apr-15 19:33N 47°11' W 122°40'0 0.0
2016-Apr-15 17:34N 47°11' W 122°40'0 0.2
2016-Apr-15 16:34N 47°11' W 122°40'0 0.3
2016-Apr-15 15:33N 47°11' W 122°39'0 0.1
2016-Apr-15 14:33N 47°11' W 122°40'2 2.1
2016-Apr-15 13:33N 47°11' W 122°37'0 0.4
2016-Apr-15 12:30N 47°10' W 122°36'1 0.2
2016-Apr-15 04:33N 47°10' W 122°38'1 1.0
2016-Apr-15 03:18N 47°10' W 122°36'0 0.3
2016-Apr-15 02:32N 47°11' W 122°36'0 0.2
2016-Apr-15 01:31N 47°11' W 122°36'3 3.1
2016-Apr-15 00:33N 47°11' W 122°41'0 0.0
2016-Apr-14 23:33N 47°11' W 122°41'0 0.0
2016-Apr-14 22:28N 47°11' W 122°41'0 0.1
2016-Apr-14 21:33N 47°11' W 122°41'3 2.5
2016-Apr-14 20:19N 47°10' W 122°36'3 3.8
2016-Apr-14 19:32N 47°11' W 122°40'3 2.6
2016-Apr-14 18:23N 47°10' W 122°36'3 3.1
2016-Apr-14 17:34N 47°11' W 122°40'0 0.0
2016-Apr-14 16:33N 47°11' W 122°40'0 0.2
2016-Apr-14 15:33N 47°11' W 122°40'0 0.0
2016-Apr-14 14:33N 47°11' W 122°40'2 1.6
2016-Apr-14 13:34N 47°11' W 122°38'1 1.2
2016-Apr-14 12:33N 47°10' W 122°36'0 0.0
2016-Apr-14 03:20N 47°10' W 122°36'0 0.1
2016-Apr-14 02:33N 47°10' W 122°36'0 0.1
2016-Apr-14 01:16N 47°10' W 122°36'3 4.3
2016-Apr-14 00:33N 47°11' W 122°41'0 0.0
2016-Apr-13 23:33N 47°11' W 122°41'0 0.0
2016-Apr-13 22:29N 47°11' W 122°41'0 0.1
2016-Apr-13 21:30N 47°11' W 122°40'3 2.9
2016-Apr-13 20:29N 47°10' W 122°36'3 3.0
2016-Apr-13 19:29N 47°11' W 122°41'0 0.3
2016-Apr-13 17:33N 47°11' W 122°40'0 0.1
2016-Apr-13 16:33N 47°11' W 122°40'0 0.1
2016-Apr-13 15:33N 47°11' W 122°40'0 0.1
2016-Apr-13 14:33N 47°11' W 122°40'3 2.7
2016-Apr-13 13:33N 47°10' W 122°36'0 0.0
2016-Apr-13 12:33N 47°10' W 122°36'0 0.0
2016-Apr-13 03:21N 47°10' W 122°36'0 0.5
2016-Apr-13 02:33N 47°11' W 122°37'0 0.3
2016-Apr-13 01:33N 47°11' W 122°36'3 2.6
2016-Apr-13 00:33N 47°11' W 122°40'0 0.3
2016-Apr-12 23:33N 47°11' W 122°40'1 0.5
2016-Apr-12 22:33N 47°11' W 122°41'0 0.0
2016-Apr-12 21:33N 47°11' W 122°41'3 3.0
2016-Apr-12 20:32N 47°10' W 122°36'3 3.1
2016-Apr-12 19:33N 47°11' W 122°41'3 2.8
2016-Apr-12 18:27N 47°10' W 122°36'3 3.4
2016-Apr-12 17:33N 47°11' W 122°41'0 0.0
2016-Apr-12 16:30N 47°11' W 122°41'0 0.0
2016-Apr-12 15:33N 47°11' W 122°41'0 0.5
2016-Apr-12 14:33N 47°11' W 122°40'2 2.0
2016-Apr-12 13:33N 47°11' W 122°37'1 0.6
2016-Apr-12 12:33N 47°10' W 122°36'0 0.0
2016-Apr-12 03:20N 47°10' W 122°36'1 0.7
2016-Apr-12 02:33N 47°11' W 122°37'0 0.3
2016-Apr-12 01:33N 47°11' W 122°37'3 2.6
2016-Apr-12 00:31N 47°11' W 122°41'0 0.0
2016-Apr-11 23:32N 47°11' W 122°41'0 0.0
2016-Apr-11 22:33N 47°11' W 122°41'0 0.0
2016-Apr-11 21:33N 47°11' W 122°41'3 3.0
2016-Apr-11 20:32N 47°10' W 122°36'0 0.0
2016-Apr-11 19:27N 47°10' W 122°36'0 0.0
2016-Apr-11 18:32N 47°10' W 122°36'0 0.0
2016-Apr-11 14:29N 47°10' W 122°36'0 0.0
2016-Apr-11 13:33N 47°10' W 122°36'0 0.0
2016-Apr-11 12:32N 47°10' W 122°36'0 0.0
2016-Apr-11 11:33N 47°10' W 122°36'0 0.0
2016-Apr-11 10:33N 47°10' W 122°36'0 0.0
2016-Apr-11 09:32N 47°10' W 122°36'0 0.0
2016-Apr-11 08:33N 47°10' W 122°36'0 0.0
2016-Apr-11 07:33N 47°10' W 122°36'0 0.0
2016-Apr-11 06:32N 47°10' W 122°36'0 0.0
2016-Apr-11 01:21N 47°10' W 122°36'0 0.0
2016-Apr-11 00:32N 47°10' W 122°36'0 0.0
2016-Apr-10 16:30N 47°10' W 122°36'0 0.0
2016-Apr-10 15:25N 47°10' W 122°36'0 0.0
2016-Apr-10 14:33N 47°10' W 122°36'0 0.0
2016-Apr-10 13:32N 47°10' W 122°36'0 0.0
2016-Apr-10 12:33N 47°10' W 122°36'0 0.0
2016-Apr-10 11:33N 47°10' W 122°36'0 0.0
2016-Apr-10 10:18N 47°10' W 122°36'0 0.0
2016-Apr-10 09:33N 47°10' W 122°36'0 0.0
2016-Apr-10 08:33N 47°10' W 122°36'0 0.0
2016-Apr-10 07:32N 47°10' W 122°36'0 0.0
2016-Apr-10 06:31N 47°10' W 122°36'0 0.0
2016-Apr-10 05:24N 47°10' W 122°36'0 0.0
2016-Apr-10 01:03N 47°10' W 122°36'0 0.1
2016-Apr-10 00:29N 47°10' W 122°36'0 0.0
2016-Apr-09 20:30N 47°10' W 122°36'0 0.0
2016-Apr-09 19:32N 47°10' W 122°36'0 0.0
2016-Apr-09 18:33N 47°10' W 122°36'  
Track history (hours):
 
Tides and Currents Weather Stations Pressure Air Temp Water Temp Dewpoint Dewpoint Depression Visibility Wind Speed Wind Dir Waves Ship Positions

Christine Anderson

Owner: PIERCE, COUNTY OF, TACOMA, WA. More information available from US FCC via Universal Licensing System and Coast Guard Vessel Documentation Center.

Last reported at 2016-Apr-19 17:33 UTC. Time now 2016-May-31 23:44 UTC.
Position N 47°38' W 122°20'.
Warning: this ship's position is 42 days out of date.

MMSI: 366659730.

Date/timePositionNaut miles runAvg speedWind from/ knotsBaromVisibWave heightAir tempDewpointWater temp
2016-Apr-19 17:33N 47°38' W 122°20'4 3.7
2016-Apr-19 16:33N 47°40' W 122°24'1 1.5
2016-Apr-19 15:33N 47°40' W 122°27'1111.0
2016-Apr-19 14:34N 47°30' W 122°30'1211.7
2016-Apr-19 13:33N 47°18' W 122°33'8 7.5
2016-Apr-19 12:30N 47°10' W 122°36'0 0.0
2016-Apr-19 11:29N 47°10' W 122°36'0 0.0
2016-Apr-19 10:33N 47°10' W 122°36'0 0.0
2016-Apr-19 09:32N 47°10' W 122°36'0 0.0
2016-Apr-19 08:33N 47°10' W 122°36'0 0.0
2016-Apr-19 03:20N 47°10' W 122°36'0 0.0
2016-Apr-18 18:06N 47°10' W 122°36'0 0.0
2016-Apr-18 17:30N 47°10' W 122°36'0 0.0
2016-Apr-18 16:33N 47°10' W 122°36'0 0.0
2016-Apr-18 15:30N 47°10' W 122°36'0 0.0
2016-Apr-18 14:33N 47°10' W 122°36'0 0.0
2016-Apr-18 13:33N 47°10' W 122°36'0 0.0
2016-Apr-18 12:33N 47°10' W 122°36'0 0.0
2016-Apr-18 10:32N 47°10' W 122°36'0 0.0
2016-Apr-18 09:31N 47°10' W 122°36'0 0.0
2016-Apr-18 08:31N 47°10' W 122°36'0 0.0
2016-Apr-18 07:30N 47°10' W 122°36'0 0.0
2016-Apr-18 06:31N 47°10' W 122°36'0 0.0
2016-Apr-18 05:33N 47°10' W 122°36'0 0.0
2016-Apr-18 04:33N 47°10' W 122°36'0 0.0
2016-Apr-18 03:30N 47°10' W 122°36'0 0.0
2016-Apr-18 02:32N 47°10' W 122°36'0 0.0
2016-Apr-18 01:28N 47°10' W 122°36'0 0.0
2016-Apr-18 00:32N 47°10' W 122°36'0 0.0
2016-Apr-17 23:26N 47°10' W 122°36'0 0.0
2016-Apr-17 21:20N 47°10' W 122°36'0 0.0
2016-Apr-17 20:33N 47°10' W 122°36'0 0.0
2016-Apr-17 19:29N 47°10' W 122°36'0 0.0
2016-Apr-17 18:30N 47°10' W 122°36'0 0.0
2016-Apr-17 17:33N 47°10' W 122°36'0 0.0
2016-Apr-17 16:33N 47°10' W 122°36'0 0.0
2016-Apr-17 15:33N 47°10' W 122°36'0 0.0
2016-Apr-17 14:33N 47°10' W 122°36'0 0.0
2016-Apr-17 13:33N 47°10' W 122°36'0 0.0
2016-Apr-17 12:33N 47°10' W 122°36'0 0.0
2016-Apr-17 11:33N 47°10' W 122°36'0 0.0
2016-Apr-17 10:33N 47°10' W 122°36'0 0.0
2016-Apr-17 08:33N 47°10' W 122°36'0 0.0
2016-Apr-17 07:33N 47°10' W 122°36'0 0.0
2016-Apr-17 06:30N 47°10' W 122°36'0 0.0
2016-Apr-17 05:29N 47°10' W 122°36'0 0.0
2016-Apr-16 22:16N 47°10' W 122°36'0 0.0
2016-Apr-16 19:29N 47°10' W 122°36'0 0.0
2016-Apr-16 18:29N 47°10' W 122°36'0 0.0
2016-Apr-16 17:32N 47°10' W 122°36'0 0.0
2016-Apr-16 16:33N 47°10' W 122°36'0 0.0
2016-Apr-16 15:32N 47°10' W 122°36'0 0.0
2016-Apr-16 14:33N 47°10' W 122°36'0 0.0
2016-Apr-16 13:33N 47°10' W 122°36'0 0.0
2016-Apr-16 12:33N 47°10' W 122°36'0 0.0
2016-Apr-16 11:33N 47°10' W 122°36'0 0.0
2016-Apr-16 10:33N 47°10' W 122°36'0 0.0
2016-Apr-16 09:33N 47°10' W 122°36'0 0.0
2016-Apr-16 08:33N 47°10' W 122°36'0 0.0
2016-Apr-16 07:33N 47°10' W 122°36'0 0.0
2016-Apr-16 06:32N 47°10' W 122°36'0 0.0
2016-Apr-16 05:33N 47°10' W 122°36'0 0.0
2016-Apr-16 04:30N 47°10' W 122°36'0 0.0
2016-Apr-16 03:33N 47°10' W 122°36'0 0.0
2016-Apr-16 02:31N 47°10' W 122°36'0 0.0
2016-Apr-15 20:22N 47°10' W 122°36'3 3.4
2016-Apr-15 19:33N 47°11' W 122°40'0 0.0
2016-Apr-15 17:34N 47°11' W 122°40'0 0.2
2016-Apr-15 16:34N 47°11' W 122°40'0 0.3
2016-Apr-15 15:33N 47°11' W 122°39'0 0.1
2016-Apr-15 14:33N 47°11' W 122°40'2 2.1
2016-Apr-15 13:33N 47°11' W 122°37'0 0.4
2016-Apr-15 12:30N 47°10' W 122°36'1 0.2
2016-Apr-15 04:33N 47°10' W 122°38'1 1.0
2016-Apr-15 03:18N 47°10' W 122°36'0 0.3
2016-Apr-15 02:32N 47°11' W 122°36'0 0.2
2016-Apr-15 01:31N 47°11' W 122°36'3 3.1
2016-Apr-15 00:33N 47°11' W 122°41'0 0.0
2016-Apr-14 23:33N 47°11' W 122°41'0 0.0
2016-Apr-14 22:28N 47°11' W 122°41'0 0.1
2016-Apr-14 21:33N 47°11' W 122°41'3 2.5
2016-Apr-14 20:19N 47°10' W 122°36'3 3.8
2016-Apr-14 19:32N 47°11' W 122°40'3 2.6
2016-Apr-14 18:23N 47°10' W 122°36'3 3.1
2016-Apr-14 17:34N 47°11' W 122°40'0 0.0
2016-Apr-14 16:33N 47°11' W 122°40'0 0.2
2016-Apr-14 15:33N 47°11' W 122°40'0 0.0
2016-Apr-14 14:33N 47°11' W 122°40'2 1.6
2016-Apr-14 13:34N 47°11' W 122°38'1 1.2
2016-Apr-14 12:33N 47°10' W 122°36'0 0.0
2016-Apr-14 03:20N 47°10' W 122°36'0 0.1
2016-Apr-14 02:33N 47°10' W 122°36'0 0.1
2016-Apr-14 01:16N 47°10' W 122°36'3 4.3
2016-Apr-14 00:33N 47°11' W 122°41'0 0.0
2016-Apr-13 23:33N 47°11' W 122°41'0 0.0
2016-Apr-13 22:29N 47°11' W 122°41'0 0.1
2016-Apr-13 21:30N 47°11' W 122°40'3 2.9
2016-Apr-13 20:29N 47°10' W 122°36'3 3.0
2016-Apr-13 19:29N 47°11' W 122°41'0 0.3
2016-Apr-13 17:33N 47°11' W 122°40'0 0.1
2016-Apr-13 16:33N 47°11' W 122°40'0 0.1
2016-Apr-13 15:33N 47°11' W 122°40'0 0.1
2016-Apr-13 14:33N 47°11' W 122°40'3 2.7
2016-Apr-13 13:33N 47°10' W 122°36'0 0.0
2016-Apr-13 12:33N 47°10' W 122°36'0 0.0
2016-Apr-13 03:21N 47°10' W 122°36'0 0.5
2016-Apr-13 02:33N 47°11' W 122°37'0 0.3
2016-Apr-13 01:33N 47°11' W 122°36'3 2.6
2016-Apr-13 00:33N 47°11' W 122°40'0 0.3
2016-Apr-12 23:33N 47°11' W 122°40'1 0.5
2016-Apr-12 22:33N 47°11' W 122°41'0 0.0
2016-Apr-12 21:33N 47°11' W 122°41'3 3.0
2016-Apr-12 20:32N 47°10' W 122°36'3 3.1
2016-Apr-12 19:33N 47°11' W 122°41'3 2.8
2016-Apr-12 18:27N 47°10' W 122°36'3 3.4
2016-Apr-12 17:33N 47°11' W 122°41'0 0.0
2016-Apr-12 16:30N 47°11' W 122°41'0 0.0
2016-Apr-12 15:33N 47°11' W 122°41'0 0.5
2016-Apr-12 14:33N 47°11' W 122°40'2 2.0
2016-Apr-12 13:33N 47°11' W 122°37'1 0.6
2016-Apr-12 12:33N 47°10' W 122°36'0 0.0
2016-Apr-12 03:20N 47°10' W 122°36'1 0.7
2016-Apr-12 02:33N 47°11' W 122°37'0 0.3
2016-Apr-12 01:33N 47°11' W 122°37'3 2.6
2016-Apr-12 00:31N 47°11' W 122°41'0 0.0
2016-Apr-11 23:32N 47°11' W 122°41'0 0.0
2016-Apr-11 22:33N 47°11' W 122°41'0 0.0
2016-Apr-11 21:33N 47°11' W 122°41'3 3.0
2016-Apr-11 20:32N 47°10' W 122°36'0 0.0
2016-Apr-11 19:27N 47°10' W 122°36'0 0.0
2016-Apr-11 18:32N 47°10' W 122°36'0 0.0
2016-Apr-11 14:29N 47°10' W 122°36'0 0.0
2016-Apr-11 13:33N 47°10' W 122°36'0 0.0
2016-Apr-11 12:32N 47°10' W 122°36'0 0.0
2016-Apr-11 11:33N 47°10' W 122°36'0 0.0
2016-Apr-11 10:33N 47°10' W 122°36'0 0.0
2016-Apr-11 09:32N 47°10' W 122°36'0 0.0
2016-Apr-11 08:33N 47°10' W 122°36'0 0.0
2016-Apr-11 07:33N 47°10' W 122°36'0 0.0
2016-Apr-11 06:32N 47°10' W 122°36'0 0.0
2016-Apr-11 01:21N 47°10' W 122°36'0 0.0
2016-Apr-11 00:32N 47°10' W 122°36'0 0.0
2016-Apr-10 16:30N 47°10' W 122°36'0 0.0
2016-Apr-10 15:25N 47°10' W 122°36'0 0.0
2016-Apr-10 14:33N 47°10' W 122°36'0 0.0
2016-Apr-10 13:32N 47°10' W 122°36'0 0.0
2016-Apr-10 12:33N 47°10' W 122°36'0 0.0
2016-Apr-10 11:33N 47°10' W 122°36'0 0.0
2016-Apr-10 10:18N 47°10' W 122°36'0 0.0
2016-Apr-10 09:33N 47°10' W 122°36'0 0.0
2016-Apr-10 08:33N 47°10' W 122°36'0 0.0
2016-Apr-10 07:32N 47°10' W 122°36'0 0.0
2016-Apr-10 06:31N 47°10' W 122°36'0 0.0
2016-Apr-10 05:24N 47°10' W 122°36'0 0.0
2016-Apr-10 01:03N 47°10' W 122°36'0 0.1
2016-Apr-10 00:29N 47°10' W 122°36'0 0.0
2016-Apr-09 20:30N 47°10' W 122°36'0 0.0
2016-Apr-09 19:32N 47°10' W 122°36'0 0.0
2016-Apr-09 18:33N 47°10' W 122°36'  

Dump ship's entire track history